Time;durP1;ratioP1;P1;durP2;ratioP2;P2;SDS_P1;SDS_P2;PMS_P1;PMS_P2;Temp;Humidity;BMP_temperature;BMP_pressure;BME280_temperature;BME280_humidity;BME280_pressure;Samples;Min_cycle;Max_cycle;Signal;HPM_P1;HPM_P2
2021/11/06 00:00:04;;;;;;;;;;;7.60;99.90;8.00;100568.00;;;;346638;28;94763;-87
2021/11/06 00:00:17;;;;;;;;;;;7.60;99.90;8.00;100566.00;;;;345844;28;83569;-88
2021/11/06 00:00:29;;;;;;;;;;;7.60;99.90;8.00;100565.00;;;;346620;28;94190;-87
2021/11/06 00:00:42;;;;;;;;;;;7.60;99.90;8.00;100561.00;;;;344545;28;83327;-87
2021/11/06 00:00:54;;;;;;;;;;;7.60;99.90;8.00;100561.00;;;;347849;27;91497;-87
2021/11/06 00:01:06;;;;;;;;;;;7.60;99.90;8.00;100561.00;;;;348447;27;83575;-87
2021/11/06 00:01:18;;;;;;;;;;;7.60;99.90;8.00;100563.00;;;;345029;28;98303;-87
2021/11/06 00:01:29;;;;;;;;;;;7.60;99.90;8.00;100555.00;;;;345835;28;83544;-87
2021/11/06 00:01:41;;;;;;;;;;;7.60;99.90;8.00;100560.00;;;;345141;28;96619;-87
2021/11/06 00:01:53;;;;;;;;;;;7.60;99.90;8.00;100561.00;;;;347030;28;83514;-87
2021/11/06 00:02:05;;;;;;;;;;;7.60;99.90;8.00;100555.00;;;;346414;28;94387;-88
2021/11/06 00:02:17;;;;;;;;;;;7.60;99.90;8.00;100561.00;;;;347531;28;83280;-88
2021/11/06 00:02:29;;;;;;;;;;;7.60;99.90;8.00;100565.00;;;;348000;27;94524;-87
2021/11/06 00:02:40;;;;;;;;;;;7.60;99.90;8.00;100561.00;;;;348747;27;83131;-87
2021/11/06 00:02:52;;;;;;;;;;;7.60;99.90;8.10;100560.00;;;;345304;28;94425;-87
2021/11/06 00:03:06;;;;;;;;;;;7.60;99.90;8.10;100564.00;;;;346081;28;83330;-88
2021/11/06 00:03:17;;;;;;;;;;;7.60;99.90;8.10;100564.00;;;;344936;28;96154;-87
2021/11/06 00:03:29;;;;;;;;;;;7.60;99.90;8.00;100564.00;;;;344673;28;82516;-87
2021/11/06 00:03:41;;;;;;;;;;;7.60;99.90;8.00;100569.00;;;;343841;28;95819;-87
2021/11/06 00:03:53;;;;;;;;;;;7.60;99.90;8.00;100561.00;;;;345715;28;83579;-87
2021/11/06 00:04:04;;;;;;;;;;;7.60;99.90;8.00;100561.00;;;;345097;28;95459;-87
2021/11/06 00:04:16;;;;;;;;;;;7.60;99.90;8.00;100564.00;;;;345004;28;83352;-87
2021/11/06 00:04:28;;;;;;;;;;;7.60;99.90;8.10;100561.00;;;;345181;28;95952;-87
2021/11/06 00:04:39;;;;;;;;;;;7.60;99.90;8.10;100563.00;;;;347482;28;82416;-87
2021/11/06 00:04:51;;;;;;;;;;;7.60;99.90;8.10;100563.00;;;;346667;28;94004;-88
2021/11/06 00:05:03;;;;;;;;;;;7.60;99.90;8.10;100561.00;;;;346054;28;83354;-87
2021/11/06 00:05:15;;;;;;;;;;;7.60;99.90;8.00;100565.00;;;;346659;28;93842;-87
2021/11/06 00:05:27;;;;;;;;;;;7.60;99.90;8.00;100562.00;;;;347459;28;83240;-87
2021/11/06 00:05:39;;;;;;;;;;;7.60;99.90;8.00;100565.00;;;;345269;28;96620;-87
2021/11/06 00:05:51;;;;;;;;;;;7.60;99.90;7.90;100566.00;;;;347305;28;83541;-87
2021/11/06 00:06:03;;;;;;;;;;;7.60;99.90;7.90;100562.00;;;;347982;27;95031;-87
2021/11/06 00:06:14;;;;;;;;;;;7.50;99.90;8.00;100565.00;;;;350269;27;83314;-87
2021/11/06 00:06:26;;;;;;;;;;;7.60;99.90;7.90;100563.00;;;;346398;28;95567;-87
2021/11/06 00:06:39;;;;;;;;;;;7.60;99.90;8.00;100562.00;;;;347200;28;82340;-87
2021/11/06 00:06:51;;;;;;;;;;;7.60;99.90;8.00;100573.00;;;;344780;28;93748;-87
2021/11/06 00:07:03;;;;;;;;;;;7.60;99.90;7.90;100577.00;;;;347251;28;83494;-87
2021/11/06 00:07:15;;;;;;;;;;;7.50;99.90;7.90;100576.00;;;;346074;28;95512;-87
2021/11/06 00:07:26;;;;;;;;;;;7.50;99.90;7.90;100570.00;;;;347506;28;83336;-87
2021/11/06 00:07:38;;;;;;;;;;;7.50;99.90;8.00;100564.00;;;;345328;28;94137;-87
2021/11/06 00:07:50;;;;;;;;;;;7.60;99.90;8.00;100560.00;;;;345823;28;83357;-87
2021/11/06 00:08:02;;;;;;;;;;;7.50;99.90;8.00;100564.00;;;;346611;28;94516;-87
2021/11/06 00:08:14;;;;;;;;;;;7.50;99.90;8.00;100564.00;;;;347401;28;83362;-87
2021/11/06 00:08:26;;;;;;;;;;;7.50;99.90;8.00;100572.00;;;;347948;27;97031;-87
2021/11/06 00:08:37;;;;;;;;;;;7.60;99.90;8.00;100571.00;;;;348707;27;83487;-87
2021/11/06 00:08:49;;;;;;;;;;;7.60;99.90;8.00;100562.00;;;;345136;28;94002;-87
2021/11/06 00:09:01;;;;;;;;;;;7.60;99.90;7.90;100571.00;;;;346036;28;83259;-88
2021/11/06 00:09:13;;;;;;;;;;;7.60;99.90;7.90;100565.00;;;;346698;28;93775;-87
2021/11/06 00:09:24;;;;;;;;;;;7.50;99.90;7.90;100560.00;;;;347412;28;83445;-87
2021/11/06 00:09:37;;;;;;;;;;;7.60;99.90;8.00;100564.00;;;;345252;28;93605;-87
2021/11/06 00:09:49;;;;;;;;;;;7.60;99.90;8.00;100565.00;;;;346823;27;83614;-87
2021/11/06 00:10:00;;;;;;;;;;;7.60;99.90;8.00;100566.00;;;;343736;28;95089;-88
2021/11/06 00:10:12;;;;;;;;;;;7.60;99.90;8.00;100565.00;;;;347462;28;82612;-86
2021/11/06 00:10:24;;;;;;;;;;;7.60;99.90;7.90;100561.00;;;;345281;28;94640;-87
2021/11/06 00:10:36;;;;;;;;;;;7.60;99.90;7.90;100562.00;;;;346060;28;82522;-87
2021/11/06 00:10:47;;;;;;;;;;;7.50;99.90;8.00;100560.00;;;;346299;28;94548;-87
2021/11/06 00:10:59;;;;;;;;;;;7.60;99.90;8.00;100573.00;;;;347288;28;83424;-87
2021/11/06 00:11:11;;;;;;;;;;;7.50;99.90;8.00;100559.00;;;;345155;28;96296;-86
2021/11/06 00:11:23;;;;;;;;;;;7.60;99.90;8.00;100560.00;;;;347344;28;83431;-87
2021/11/06 00:11:39;;;;;;;;;;;7.60;99.90;7.90;100567.00;;;;345228;28;94635;-87
2021/11/06 00:11:50;;;;;;;;;;;7.50;99.90;7.90;100562.00;;;;343314;28;82372;-87
2021/11/06 00:12:03;;;;;;;;;;;7.60;99.90;7.90;100572.00;;;;343798;28;96454;-87
2021/11/06 00:12:15;;;;;;;;;;;7.50;99.90;8.00;100562.00;;;;346120;28;83250;-87
2021/11/06 00:12:28;;;;;;;;;;;7.50;99.90;8.00;100563.00;;;;345168;28;96779;-87
2021/11/06 00:12:40;;;;;;;;;;;7.60;99.90;8.00;100564.00;;;;345964;28;83464;-87
2021/11/06 00:12:52;;;;;;;;;;;7.50;99.90;8.00;100565.00;;;;345975;28;97137;-87
2021/11/06 00:13:04;;;;;;;;;;;7.60;99.90;8.00;100563.00;;;;347346;28;82562;-87
2021/11/06 00:13:17;;;;;;;;;;;7.60;99.90;8.00;100567.00;;;;344622;28;95481;-87
2021/11/06 00:13:30;;;;;;;;;;;7.60;99.90;7.90;100563.00;;;;346060;28;83251;-87
2021/11/06 00:13:41;;;;;;;;;;;7.50;99.90;8.00;100569.00;;;;344934;28;94185;-87
2021/11/06 00:13:53;;;;;;;;;;;7.50;99.90;8.00;100565.00;;;;347080;28;82506;-87
2021/11/06 00:14:05;;;;;;;;;;;7.50;99.90;8.00;100567.00;;;;345273;28;94410;-87
2021/11/06 00:14:17;;;;;;;;;;;7.60;99.90;7.90;100572.00;;;;344674;28;82352;-87
2021/11/06 00:14:28;;;;;;;;;;;7.60;99.90;8.00;100568.00;;;;346508;28;96991;-87
2021/11/06 00:14:40;;;;;;;;;;;7.60;99.90;8.00;100566.00;;;;346051;28;83266;-87
2021/11/06 00:14:52;;;;;;;;;;;7.50;99.90;8.00;100564.00;;;;345338;28;94622;-87
2021/11/06 00:15:05;;;;;;;;;;;7.60;99.90;8.00;100562.00;;;;347437;28;83319;-87
2021/11/06 00:15:19;;;;;;;;;;;7.50;99.90;8.00;100567.00;;;;343890;28;94599;-87
2021/11/06 00:15:30;;;;;;;;;;;7.60;99.90;7.90;100574.00;;;;347536;28;83168;-87
2021/11/06 00:15:42;;;;;;;;;;;7.60;99.90;8.00;100577.00;;;;345107;28;94279;-87
2021/11/06 00:15:54;;;;;;;;;;;7.60;99.90;8.00;100562.00;;;;347116;28;83464;-87
2021/11/06 00:16:06;;;;;;;;;;;7.50;99.90;8.00;100570.00;;;;343777;28;95469;-88
2021/11/06 00:16:18;;;;;;;;;;;7.60;99.90;8.00;100565.00;;;;347027;28;83355;-87
2021/11/06 00:16:30;;;;;;;;;;;7.60;99.90;8.00;100559.00;;;;346724;28;93152;-87
2021/11/06 00:16:41;;;;;;;;;;;7.60;99.90;8.00;100564.00;;;;348629;27;83564;-87
2021/11/06 00:16:54;;;;;;;;;;;7.60;99.90;8.00;100566.00;;;;346269;28;95608;-87
2021/11/06 00:17:06;;;;;;;;;;;7.60;99.90;8.00;100560.00;;;;347110;28;83540;-87
2021/11/06 00:17:18;;;;;;;;;;;7.60;99.90;8.00;100571.00;;;;346714;28;94422;-87
2021/11/06 00:17:30;;;;;;;;;;;7.50;99.90;8.00;100563.00;;;;345799;28;83285;-87
2021/11/06 00:17:42;;;;;;;;;;;7.60;99.90;8.00;100564.00;;;;345105;28;95952;-87
2021/11/06 00:17:54;;;;;;;;;;;7.60;99.90;8.00;100558.00;;;;346017;28;82507;-87
2021/11/06 00:18:05;;;;;;;;;;;7.60;99.90;8.00;100560.00;;;;346566;28;95533;-87
2021/11/06 00:18:17;;;;;;;;;;;7.60;99.90;7.90;100559.00;;;;347267;28;82561;-88
2021/11/06 00:18:29;;;;;;;;;;;7.60;99.90;8.00;100565.00;;;;347863;27;96851;-88
2021/11/06 00:18:41;;;;;;;;;;;7.60;99.90;8.00;100562.00;;;;348859;27;83531;-87
2021/11/06 00:18:53;;;;;;;;;;;7.50;99.90;8.00;100554.00;;;;346260;28;94119;-87
2021/11/06 00:19:04;;;;;;;;;;;7.60;99.90;8.00;100562.00;;;;347378;28;83417;-87
2021/11/06 00:19:18;;;;;;;;;;;7.60;99.90;8.00;100554.00;;;;346351;28;96138;-87
2021/11/06 00:19:30;;;;;;;;;;;7.60;99.90;8.00;100562.00;;;;345955;28;83337;-88
2021/11/06 00:19:42;;;;;;;;;;;7.60;99.90;8.00;100561.00;;;;346150;28;93882;-86
2021/11/06 00:19:54;;;;;;;;;;;7.60;99.90;8.00;100559.00;;;;345680;28;83440;-87
2021/11/06 00:20:07;;;;;;;;;;;7.60;99.90;8.00;100564.00;;;;346252;28;98160;-88
2021/11/06 00:20:18;;;;;;;;;;;7.60;99.90;8.00;100561.00;;;;346069;28;83315;-87
2021/11/06 00:20:30;;;;;;;;;;;7.60;99.90;8.10;100564.00;;;;343905;28;94141;-87
2021/11/06 00:20:42;;;;;;;;;;;7.60;99.90;8.10;100561.00;;;;347501;28;83377;-87
2021/11/06 00:20:54;;;;;;;;;;;7.60;99.90;8.00;100550.00;;;;345296;28;94639;-88
2021/11/06 00:21:06;;;;;;;;;;;7.60;99.90;8.10;100559.00;;;;346095;28;82364;-88
2021/11/06 00:21:17;;;;;;;;;;;7.60;99.90;8.00;100563.00;;;;347694;27;97078;-87
2021/11/06 00:21:29;;;;;;;;;;;7.60;99.90;8.10;100560.00;;;;348637;27;82438;-88
2021/11/06 00:21:41;;;;;;;;;;;7.60;99.90;8.10;100555.00;;;;348044;27;94529;-87
2021/11/06 00:21:53;;;;;;;;;;;7.60;99.90;8.10;100563.00;;;;348386;27;83461;-87
2021/11/06 00:22:06;;;;;;;;;;;7.60;99.90;8.10;100558.00;;;;345037;28;94966;-87
2021/11/06 00:22:18;;;;;;;;;;;7.60;99.90;8.00;100563.00;;;;345956;28;82343;-87
2021/11/06 00:22:30;;;;;;;;;;;7.60;99.90;8.00;100564.00;;;;347707;27;96668;-87
2021/11/06 00:22:42;;;;;;;;;;;7.60;99.90;8.10;100555.00;;;;346031;28;83310;-88
2021/11/06 00:22:54;;;;;;;;;;;7.60;99.90;8.00;100560.00;;;;348008;27;95772;-87
2021/11/06 00:23:06;;;;;;;;;;;7.60;99.90;8.00;100553.00;;;;346051;28;83359;-88
2021/11/06 00:23:18;;;;;;;;;;;7.60;99.90;8.00;100558.00;;;;345203;28;93810;-87
2021/11/06 00:23:29;;;;;;;;;;;7.60;99.90;8.00;100556.00;;;;347196;28;83375;-87
2021/11/06 00:23:41;;;;;;;;;;;7.60;99.90;8.00;100552.00;;;;348054;27;94623;-87
2021/11/06 00:23:53;;;;;;;;;;;7.60;99.90;8.00;100549.00;;;;347101;28;83553;-87
2021/11/06 00:24:05;;;;;;;;;;;7.60;99.90;8.10;100560.00;;;;345245;28;95174;-87
2021/11/06 00:24:19;;;;;;;;;;;7.60;99.90;8.10;100563.00;;;;347220;28;82416;-87
2021/11/06 00:24:31;;;;;;;;;;;7.60;99.90;8.10;100561.00;;;;345028;28;95801;-87
2021/11/06 00:24:43;;;;;;;;;;;7.60;99.90;8.00;100562.00;;;;345776;28;83445;-88
2021/11/06 00:24:54;;;;;;;;;;;7.60;99.90;8.00;100559.00;;;;345502;28;96563;-88
2021/11/06 00:25:07;;;;;;;;;;;7.60;99.90;8.00;100558.00;;;;346019;28;83325;-87
2021/11/06 00:25:19;;;;;;;;;;;7.60;99.90;8.10;100559.00;;;;347720;27;95405;-87
2021/11/06 00:25:31;;;;;;;;;;;7.60;99.90;8.00;100567.00;;;;344687;28;83163;-87
2021/11/06 00:25:43;;;;;;;;;;;7.60;99.90;8.00;100563.00;;;;345289;28;94526;-87
2021/11/06 00:25:54;;;;;;;;;;;7.60;99.90;8.00;100560.00;;;;345606;28;83377;-87
2021/11/06 00:26:06;;;;;;;;;;;7.60;99.90;8.00;100562.00;;;;345191;28;95601;-87
2021/11/06 00:26:18;;;;;;;;;;;7.60;99.90;8.00;100562.00;;;;348803;27;82297;-87
2021/11/06 00:26:30;;;;;;;;;;;7.60;99.90;8.00;100557.00;;;;345067;28;96695;-88
2021/11/06 00:26:41;;;;;;;;;;;7.60;99.90;8.00;100563.00;;;;344671;28;83441;-87
2021/11/06 00:26:53;;;;;;;;;;;7.60;99.90;8.00;100554.00;;;;343910;28;94089;-87
2021/11/06 00:27:05;;;;;;;;;;;7.60;99.90;8.00;100569.00;;;;345759;28;83431;-87
2021/11/06 00:27:17;;;;;;;;;;;7.60;99.90;7.90;100555.00;;;;346581;28;94625;-87
2021/11/06 00:27:29;;;;;;;;;;;7.60;99.90;8.00;100568.00;;;;345536;28;83534;-88
2021/11/06 00:27:41;;;;;;;;;;;7.60;99.90;8.00;100563.00;;;;346435;28;93743;-87
2021/11/06 00:27:53;;;;;;;;;;;7.50;99.90;8.00;100561.00;;;;348459;27;83450;-88
2021/11/06 00:28:04;;;;;;;;;;;7.50;99.90;8.00;100565.00;;;;347896;27;95356;-87
2021/11/06 00:28:16;;;;;;;;;;;7.60;99.90;8.00;100570.00;;;;347394;28;83073;-87
2021/11/06 00:28:28;;;;;;;;;;;7.60;99.90;8.00;100559.00;;;;346662;28;93096;-87
2021/11/06 00:28:40;;;;;;;;;;;7.60;99.90;8.00;100558.00;;;;348848;27;83479;-87
2021/11/06 00:28:51;;;;;;;;;;;7.50;99.90;7.90;100559.00;;;;349045;27;96470;-87
2021/11/06 00:29:04;;;;;;;;;;;7.50;99.90;7.80;100571.00;;;;348648;27;83269;-87
2021/11/06 00:29:17;;;;;;;;;;;7.60;99.90;7.80;100565.00;;;;346617;28;94052;-87
2021/11/06 00:29:28;;;;;;;;;;;7.50;99.90;7.80;100564.00;;;;347166;28;83280;-87
2021/11/06 00:29:41;;;;;;;;;;;7.50;99.90;7.90;100558.00;;;;346345;28;97204;-87
2021/11/06 00:29:52;;;;;;;;;;;7.50;99.90;7.90;100566.00;;;;347336;28;83467;-87
2021/11/06 00:30:06;;;;;;;;;;;7.50;99.90;7.90;100559.00;;;;346569;28;95210;-88
2021/11/06 00:30:18;;;;;;;;;;;7.50;99.90;7.90;100554.00;;;;348453;27;83313;-87
2021/11/06 00:30:30;;;;;;;;;;;7.50;99.90;7.90;100565.00;;;;345129;28;92465;-87
2021/11/06 00:30:42;;;;;;;;;;;7.50;99.90;7.90;100562.00;;;;346042;28;83247;-87
2021/11/06 00:30:53;;;;;;;;;;;7.50;99.90;7.90;100557.00;;;;344955;28;93719;-87
2021/11/06 00:31:05;;;;;;;;;;;7.50;99.90;7.90;100557.00;;;;347263;28;83242;-87
2021/11/06 00:31:17;;;;;;;;;;;7.50;99.90;7.90;100566.00;;;;346572;28;94196;-87
2021/11/06 00:31:29;;;;;;;;;;;7.50;99.90;7.90;100560.00;;;;346118;28;83385;-87
2021/11/06 00:31:41;;;;;;;;;;;7.50;99.90;7.90;100563.00;;;;345321;28;92764;-87
2021/11/06 00:31:52;;;;;;;;;;;7.50;99.90;8.00;100563.00;;;;347325;28;83349;-87
2021/11/06 00:32:05;;;;;;;;;;;7.50;99.90;8.00;100555.00;;;;346401;28;97448;-87
2021/11/06 00:32:17;;;;;;;;;;;7.50;99.90;8.00;100564.00;;;;346067;28;83383;-86
2021/11/06 00:32:29;;;;;;;;;;;7.50;99.90;7.90;100560.00;;;;343729;28;93547;-87
2021/11/06 00:32:40;;;;;;;;;;;7.50;99.90;7.90;100555.00;;;;347205;28;83403;-87
2021/11/06 00:32:52;;;;;;;;;;;7.50;99.90;8.00;100558.00;;;;345271;28;94198;-87
2021/11/06 00:33:04;;;;;;;;;;;7.50;99.90;8.00;100561.00;;;;347426;28;83359;-88
2021/11/06 00:33:16;;;;;;;;;;;7.50;99.90;8.00;100575.00;;;;346481;27;97460;-88
2021/11/06 00:33:28;;;;;;;;;;;7.50;99.90;8.00;100567.00;;;;348753;27;83403;-88
2021/11/06 00:33:40;;;;;;;;;;;7.50;99.90;8.00;100566.00;;;;345235;28;97043;-87
2021/11/06 00:33:51;;;;;;;;;;;7.50;99.90;8.00;100562.00;;;;348102;27;83419;-87
2021/11/06 00:34:05;;;;;;;;;;;7.50;99.90;7.90;100555.00;;;;346451;27;94986;-87
2021/11/06 00:34:17;;;;;;;;;;;7.50;99.90;7.90;100558.00;;;;345900;28;83402;-87
2021/11/06 00:34:29;;;;;;;;;;;7.50;99.90;7.90;100558.00;;;;343869;28;94598;-87
2021/11/06 00:34:40;;;;;;;;;;;7.50;99.90;8.00;100562.00;;;;346033;28;83272;-87
2021/11/06 00:34:52;;;;;;;;;;;7.50;99.90;7.80;100561.00;;;;345093;28;97116;-87
2021/11/06 00:35:05;;;;;;;;;;;7.50;99.90;7.90;100556.00;;;;346004;28;83522;-87
2021/11/06 00:35:17;;;;;;;;;;;7.50;99.90;7.90;100550.00;;;;345151;28;97314;-87
2021/11/06 00:35:29;;;;;;;;;;;7.50;99.90;7.90;100559.00;;;;344715;28;83316;-87
2021/11/06 00:35:41;;;;;;;;;;;7.40;99.90;7.90;100563.00;;;;346662;28;94250;-87
2021/11/06 00:35:52;;;;;;;;;;;7.50;99.90;7.90;100562.00;;;;343228;28;83479;-87
2021/11/06 00:36:04;;;;;;;;;;;7.50;99.90;7.90;100558.00;;;;343835;28;94892;-87
2021/11/06 00:36:17;;;;;;;;;;;7.50;99.90;7.90;100562.00;;;;344592;28;83344;-87
2021/11/06 00:36:29;;;;;;;;;;;7.50;99.90;7.90;100566.00;;;;344944;28;96569;-87
2021/11/06 00:36:40;;;;;;;;;;;7.50;99.90;7.90;100557.00;;;;345941;28;82490;-87
2021/11/06 00:36:52;;;;;;;;;;;7.50;99.90;7.90;100562.00;;;;346205;28;96645;-87
2021/11/06 00:37:04;;;;;;;;;;;7.50;99.90;7.90;100561.00;;;;347295;28;83491;-87
2021/11/06 00:37:17;;;;;;;;;;;7.50;99.90;7.90;100560.00;;;;345549;28;94532;-87
2021/11/06 00:37:28;;;;;;;;;;;7.50;99.90;7.90;100566.00;;;;347475;28;82451;-87
2021/11/06 00:37:40;;;;;;;;;;;7.50;99.90;7.90;100569.00;;;;346658;28;93178;-87
2021/11/06 00:37:52;;;;;;;;;;;7.50;99.90;7.90;100555.00;;;;349000;27;83539;-87
2021/11/06 00:38:04;;;;;;;;;;;7.40;99.90;8.00;100566.00;;;;346634;28;94116;-87
2021/11/06 00:38:16;;;;;;;;;;;7.50;99.90;7.90;100562.00;;;;345957;28;83478;-87
2021/11/06 00:38:27;;;;;;;;;;;7.40;99.90;7.90;100557.00;;;;345242;28;92984;-87
2021/11/06 00:38:39;;;;;;;;;;;7.50;99.90;7.90;100569.00;;;;345916;28;83469;-87
2021/11/06 00:38:51;;;;;;;;;;;7.40;99.90;7.90;100570.00;;;;345131;28;97107;-87
2021/11/06 00:39:04;;;;;;;;;;;7.50;99.90;7.90;100559.00;;;;346000;28;83338;-86
2021/11/06 00:39:15;;;;;;;;;;;7.50;99.90;7.90;100563.00;;;;344904;28;97164;-87
2021/11/06 00:39:27;;;;;;;;;;;7.50;99.90;7.90;100556.00;;;;346057;28;83349;-87
2021/11/06 00:39:40;;;;;;;;;;;7.50;99.90;7.90;100562.00;;;;345202;28;94648;-87
2021/11/06 00:39:51;;;;;;;;;;;7.50;99.90;7.90;100564.00;;;;345572;28;83513;-88
2021/11/06 00:40:04;;;;;;;;;;;7.50;99.90;7.90;100566.00;;;;344850;28;95351;-88
2021/11/06 00:40:16;;;;;;;;;;;7.50;99.90;7.90;100555.00;;;;345878;28;82314;-87
2021/11/06 00:40:28;;;;;;;;;;;7.50;99.90;7.90;100567.00;;;;345172;28;94457;-87
2021/11/06 00:40:40;;;;;;;;;;;7.50;99.90;7.90;100563.00;;;;347309;28;82405;-87
2021/11/06 00:40:52;;;;;;;;;;;7.50;99.90;7.80;100567.00;;;;335602;28;93010;-88
2021/11/06 00:41:03;;;;;;;;;;;7.50;99.90;7.80;100571.00;;;;337798;28;83109;-88
2021/11/06 00:41:15;;;;;;;;;;;7.50;99.90;7.80;100560.00;;;;335638;28;94080;-87
2021/11/06 00:41:27;;;;;;;;;;;7.40;99.90;7.80;100562.00;;;;337777;28;82582;-87
2021/11/06 00:41:39;;;;;;;;;;;7.50;99.90;7.90;100560.00;;;;338306;28;94308;-87
2021/11/06 00:41:51;;;;;;;;;;;7.40;99.90;7.80;100561.00;;;;338718;28;83377;-87
2021/11/06 00:42:03;;;;;;;;;;;7.40;99.90;7.90;100562.00;;;;339513;28;94855;-87
2021/11/06 00:42:15;;;;;;;;;;;7.40;99.90;7.90;100568.00;;;;337790;28;83097;-88
2021/11/06 00:42:26;;;;;;;;;;;7.40;99.90;7.90;100566.00;;;;336975;28;94206;-88
2021/11/06 00:42:38;;;;;;;;;;;7.40;99.90;7.90;100571.00;;;;337532;28;83368;-88
2021/11/06 00:42:50;;;;;;;;;;;7.50;99.90;7.90;100570.00;;;;339944;28;93084;-87
2021/11/06 00:43:02;;;;;;;;;;;7.40;99.90;7.80;100568.00;;;;341971;28;83223;-87
2021/11/06 00:43:14;;;;;;;;;;;7.40;99.90;7.90;100564.00;;;;337830;28;93931;-87
2021/11/06 00:43:25;;;;;;;;;;;7.40;99.90;7.90;100566.00;;;;338870;28;83362;-88
2021/11/06 00:43:37;;;;;;;;;;;7.40;99.90;7.90;100567.00;;;;338311;28;94415;-87
2021/11/06 00:43:49;;;;;;;;;;;7.50;99.90;7.90;100570.00;;;;341012;28;82498;-87
2021/11/06 00:44:01;;;;;;;;;;;7.50;99.90;7.90;100568.00;;;;336853;28;98040;-87
2021/11/06 00:44:13;;;;;;;;;;;7.40;99.90;7.90;100564.00;;;;339044;28;83426;-87
2021/11/06 00:44:25;;;;;;;;;;;7.40;99.90;7.90;100564.00;;;;337850;28;93559;-87
2021/11/06 00:44:36;;;;;;;;;;;7.40;99.90;7.90;100568.00;;;;340334;28;82413;-87
2021/11/06 00:44:48;;;;;;;;;;;7.50;99.90;7.90;100559.00;;;;338385;28;93847;-87
2021/11/06 00:45:00;;;;;;;;;;;7.40;99.90;7.90;100561.00;;;;339090;28;83442;-87
2021/11/06 00:45:12;;;;;;;;;;;7.50;99.90;7.90;100579.00;;;;345255;28;93661;-87
2021/11/06 00:45:24;;;;;;;;;;;7.40;99.90;7.80;100574.00;;;;343367;28;82519;-87
2021/11/06 00:45:36;;;;;;;;;;;7.50;99.90;7.80;100560.00;;;;343477;28;97161;-87
2021/11/06 00:45:48;;;;;;;;;;;7.40;99.90;7.80;100563.00;;;;339550;28;83540;-87
2021/11/06 00:46:00;;;;;;;;;;;7.40;99.90;7.80;100572.00;;;;338382;28;95291;-87
2021/11/06 00:46:11;;;;;;;;;;;7.40;99.90;7.70;100562.00;;;;344589;28;83312;-87
2021/11/06 00:46:23;;;;;;;;;;;7.40;99.90;7.80;100575.00;;;;336837;28;95969;-87
2021/11/06 00:46:35;;;;;;;;;;;7.40;99.90;7.80;100565.00;;;;336344;28;83284;-87
2021/11/06 00:46:47;;;;;;;;;;;7.40;99.90;7.80;100563.00;;;;342714;28;96179;-87
2021/11/06 00:46:58;;;;;;;;;;;7.40;99.90;7.80;100566.00;;;;347439;28;83229;-88
2021/11/06 00:47:11;;;;;;;;;;;7.40;99.90;7.80;100568.00;;;;336820;28;97689;-87
2021/11/06 00:47:22;;;;;;;;;;;7.40;99.90;7.80;100566.00;;;;337703;28;83479;-88
2021/11/06 00:47:39;;;;;;;;;;;7.40;99.90;7.80;100569.00;;;;339618;28;95527;-87
2021/11/06 00:47:51;;;;;;;;;;;7.40;99.90;7.80;100563.00;;;;338971;28;83598;-87
2021/11/06 00:48:03;;;;;;;;;;;7.30;99.90;7.80;100569.00;;;;339406;28;97584;-87
2021/11/06 00:48:15;;;;;;;;;;;7.30;99.90;7.90;100557.00;;;;338813;28;82385;-87
2021/11/06 00:48:26;;;;;;;;;;;7.40;99.90;7.90;100567.00;;;;339536;28;96732;-87
2021/11/06 00:48:38;;;;;;;;;;;7.40;99.90;7.90;100571.00;;;;344676;28;83562;-87
2021/11/06 00:48:50;;;;;;;;;;;7.40;99.90;7.90;100563.00;;;;343090;28;96798;-88
2021/11/06 00:49:02;;;;;;;;;;;7.40;99.90;7.90;100561.00;;;;340144;28;83468;-87
2021/11/06 00:49:14;;;;;;;;;;;7.40;99.90;7.90;100561.00;;;;347674;27;92978;-88
2021/11/06 00:49:26;;;;;;;;;;;7.40;99.90;7.90;100568.00;;;;343332;28;83176;-87
2021/11/06 00:49:38;;;;;;;;;;;7.40;99.90;7.90;100554.00;;;;336983;28;94412;-88
2021/11/06 00:49:50;;;;;;;;;;;7.40;99.90;7.90;100567.00;;;;340098;28;83443;-88
2021/11/06 00:50:03;;;;;;;;;;;7.40;99.90;7.90;100564.00;;;;338157;28;94730;-87
2021/11/06 00:50:16;;;;;;;;;;;7.40;99.90;7.90;100560.00;;;;338798;28;83602;-87
2021/11/06 00:50:28;;;;;;;;;;;7.40;99.90;7.90;100569.00;;;;338276;28;92927;-88
2021/11/06 00:50:40;;;;;;;;;;;7.40;99.90;7.90;100562.00;;;;339042;28;82627;-87
2021/11/06 00:50:52;;;;;;;;;;;7.40;99.90;7.90;100565.00;;;;339692;28;94223;-87
2021/11/06 00:51:04;;;;;;;;;;;7.40;99.90;7.90;100564.00;;;;338830;28;82321;-87
2021/11/06 00:51:15;;;;;;;;;;;7.40;99.90;7.90;100561.00;;;;338219;28;94014;-87
2021/11/06 00:51:27;;;;;;;;;;;7.40;99.90;7.80;100566.00;;;;340448;28;82323;-87
2021/11/06 00:51:39;;;;;;;;;;;7.40;99.90;7.90;100574.00;;;;338258;28;94688;-87
2021/11/06 00:51:51;;;;;;;;;;;7.40;99.90;7.90;100570.00;;;;341523;28;83524;-88
2021/11/06 00:52:03;;;;;;;;;;;7.40;99.90;7.80;100562.00;;;;340470;28;97428;-87
2021/11/06 00:52:15;;;;;;;;;;;7.40;99.90;7.90;100569.00;;;;339415;28;83295;-88
2021/11/06 00:52:27;;;;;;;;;;;7.40;99.90;7.90;100562.00;;;;339648;28;94186;-87
2021/11/06 00:52:39;;;;;;;;;;;7.40;99.90;7.90;100562.00;;;;339054;28;83143;-88
2021/11/06 00:52:51;;;;;;;;;;;7.40;99.90;7.90;100568.00;;;;338043;28;93112;-88
2021/11/06 00:53:03;;;;;;;;;;;7.50;99.90;7.90;100561.00;;;;336467;28;83291;-87
2021/11/06 00:53:15;;;;;;;;;;;7.40;99.90;7.80;100568.00;;;;335583;28;94350;-87
2021/11/06 00:53:27;;;;;;;;;;;7.40;99.90;7.80;100566.00;;;;337711;28;83305;-87
2021/11/06 00:53:39;;;;;;;;;;;7.50;99.90;7.80;100563.00;;;;337934;28;94418;-87
2021/11/06 00:53:51;;;;;;;;;;;7.40;99.90;7.80;100572.00;;;;338816;28;83533;-88
2021/11/06 00:54:03;;;;;;;;;;;7.40;99.90;7.80;100571.00;;;;339522;28;95525;-87
2021/11/06 00:54:15;;;;;;;;;;;7.40;99.90;7.90;100565.00;;;;340362;28;83217;-87
2021/11/06 00:54:26;;;;;;;;;;;7.40;99.90;7.90;100574.00;;;;339364;28;96761;-88
2021/11/06 00:54:38;;;;;;;;;;;7.40;99.90;7.90;100570.00;;;;338857;28;82457;-88
2021/11/06 00:54:50;;;;;;;;;;;7.40;99.90;7.90;100569.00;;;;340620;28;94956;-87
2021/11/06 00:55:03;;;;;;;;;;;7.40;99.90;7.80;100573.00;;;;338927;28;83398;-88
2021/11/06 00:55:15;;;;;;;;;;;7.50;99.90;7.80;100568.00;;;;339511;28;94164;-87
2021/11/06 00:55:27;;;;;;;;;;;7.40;99.90;7.90;100577.00;;;;336408;28;83228;-87
2021/11/06 00:55:39;;;;;;;;;;;7.40;99.90;7.80;100571.00;;;;336759;28;96615;-87
2021/11/06 00:55:51;;;;;;;;;;;7.40;99.90;7.90;100573.00;;;;335959;28;83415;-87
2021/11/06 00:56:03;;;;;;;;;;;7.40;99.90;7.90;100572.00;;;;335607;28;97474;-88
2021/11/06 00:56:15;;;;;;;;;;;7.40;99.90;7.90;100575.00;;;;339055;28;83294;-87
2021/11/06 00:56:26;;;;;;;;;;;7.40;99.90;7.90;100576.00;;;;338102;28;94642;-87
2021/11/06 00:56:38;;;;;;;;;;;7.40;99.90;7.90;100580.00;;;;337743;28;83173;-87
2021/11/06 00:56:50;;;;;;;;;;;7.40;99.90;7.90;100577.00;;;;339606;28;94327;-87
2021/11/06 00:57:03;;;;;;;;;;;7.50;99.90;7.90;100570.00;;;;337737;28;83159;-87
2021/11/06 00:57:14;;;;;;;;;;;7.40;99.90;7.80;100571.00;;;;336986;28;92738;-87
2021/11/06 00:57:27;;;;;;;;;;;7.40;99.90;7.90;100579.00;;;;339085;28;83235;-88
2021/11/06 00:57:38;;;;;;;;;;;7.40;99.90;7.90;100567.00;;;;337031;28;93815;-87
2021/11/06 00:57:50;;;;;;;;;;;7.40;99.90;7.90;100569.00;;;;342491;28;83341;-87
2021/11/06 00:58:02;;;;;;;;;;;7.40;99.90;7.90;100572.00;;;;340800;28;97532;-87
2021/11/06 00:58:14;;;;;;;;;;;7.40;99.90;7.80;100583.00;;;;338923;28;82503;-87
2021/11/06 00:58:26;;;;;;;;;;;7.40;99.90;7.90;100575.00;;;;338299;28;94183;-88
2021/11/06 00:58:38;;;;;;;;;;;7.40;99.90;7.90;100565.00;;;;337449;28;83174;-88
2021/11/06 00:58:50;;;;;;;;;;;7.40;99.90;7.90;100588.00;;;;337544;28;94327;-87
2021/11/06 00:59:02;;;;;;;;;;;7.40;99.90;7.90;100579.00;;;;337735;28;83353;-87
2021/11/06 00:59:15;;;;;;;;;;;7.50;99.90;7.90;100570.00;;;;336923;28;92933;-87
2021/11/06 00:59:27;;;;;;;;;;;7.50;99.90;7.90;100577.00;;;;337696;28;83488;-87
2021/11/06 00:59:40;;;;;;;;;;;7.40;99.90;7.90;100569.00;;;;336977;28;94140;-87
2021/11/06 00:59:51;;;;;;;;;;;7.40;99.90;7.90;100575.00;;;;337752;28;83413;-88
2021/11/06 01:00:05;;;;;;;;;;;7.50;99.90;7.90;100579.00;;;;336765;28;97997;-87